Time;durP1;ratioP1;P1;durP2;ratioP2;P2;SDS_P1;SDS_P2;PMS_P1;PMS_P2;Temp;Humidity;BMP_temperature;BMP_pressure;BME280_temperature;BME280_humidity;BME280_pressure;Samples;Min_cycle;Max_cycle;Signal;HPM_P1;HPM_P2
2022/09/17 00:00:39;;;;;;;3.35;0.80;;;;;;;10.73;77.87;97934.53;7388299;19;20018;-75
2022/09/17 00:03:08;;;;;;;2.28;0.80;;;;;;;10.75;79.24;97934.38;7381067;19;20015;-77
2022/09/17 00:05:36;;;;;;;3.25;0.73;;;;;;;10.65;79.21;97928.44;7380685;19;20022;-76
2022/09/17 00:08:08;;;;;;;1.00;0.50;;;;;;;10.63;79.51;97928.59;7387485;19;20478;-76
2022/09/17 00:10:40;;;;;;;0.77;0.63;;;;;;;10.45;77.72;97934.09;7391301;19;20014;-76
2022/09/17 00:13:07;;;;;;;3.53;0.82;;;;;;;10.53;78.56;97938.50;7386916;19;20348;-76
2022/09/17 00:15:42;;;;;;;1.58;0.70;;;;;;;10.61;78.39;97935.91;7386223;19;20018;-75
2022/09/17 00:18:09;;;;;;;2.53;1.00;;;;;;;10.72;78.37;97940.84;7383929;19;20041;-74
2022/09/17 00:20:40;;;;;;;0.70;0.70;;;;;;;10.79;77.12;97943.63;7390523;19;20014;-74
2022/09/17 00:23:08;;;;;;;1.25;0.60;;;;;;;10.78;76.73;97941.97;7385474;19;20014;-75
2022/09/17 00:25:43;;;;;;;2.15;0.80;;;;;;;10.79;76.04;97943.63;7388560;19;20043;-76
2022/09/17 00:28:11;;;;;;;0.95;0.60;;;;;;;10.79;75.83;97946.25;7390343;19;20011;-75
2022/09/17 00:30:43;;;;;;;2.05;1.17;;;;;;;10.92;76.42;97943.94;7387110;19;20014;-76
2022/09/17 00:33:15;;;;;;;2.97;0.85;;;;;;;10.85;77.61;97942.13;7387293;19;20014;-74
2022/09/17 00:35:44;;;;;;;2.65;0.80;;;;;;;10.90;76.52;97939.78;7387437;19;20007;-75
2022/09/17 00:38:11;;;;;;;3.58;1.10;;;;;;;10.91;76.32;97944.94;7383832;19;20345;-75
2022/09/17 00:40:39;;;;;;;3.60;0.80;;;;;;;11.01;76.33;97946.59;7385296;19;20035;-75
2022/09/17 00:43:11;;;;;;;3.58;1.42;;;;;;;10.97;75.48;97943.44;7386402;19;20017;-76
2022/09/17 00:45:37;;;;;;;1.45;0.85;;;;;;;11.03;76.64;97942.75;7386994;19;20011;-76
2022/09/17 00:48:06;;;;;;;2.00;0.60;;;;;;;10.97;75.83;97941.59;7383677;19;20463;-74
2022/09/17 00:50:36;;;;;;;1.90;0.82;;;;;;;11.02;75.94;97937.63;7387165;19;20022;-75
2022/09/17 00:53:05;;;;;;;2.42;0.90;;;;;;;11.05;77.01;97942.59;7387335;19;20018;-76
2022/09/17 00:55:39;;;;;;;1.17;0.80;;;;;;;11.01;76.45;97938.66;7383615;19;20026;-75
2022/09/17 00:58:10;;;;;;;0.52;0.52;;;;;;;11.09;76.27;97939.44;7386066;19;20064;-76
2022/09/17 01:00:37;;;;;;;1.45;0.60;;;;;;;10.94;75.33;97947.25;7387424;19;20055;-75
2022/09/17 01:03:04;;;;;;;1.08;0.70;;;;;;;10.87;77.51;97948.91;7390531;19;20006;-76
2022/09/17 01:05:44;;;;;;;1.80;0.90;;;;;;;10.74;76.82;97946.78;7385331;19;20050;-76
2022/09/17 01:08:24;;;;;;;0.80;0.70;;;;;;;10.64;78.42;97946.13;7385255;19;20018;-76
2022/09/17 01:11:18;;;;;;;2.53;0.88;;;;;;;10.43;79.21;97951.09;7384851;19;20010;-75
2022/09/17 01:14:13;;;;;;;1.90;0.80;;;;;;;10.34;78.76;97952.91;7387805;19;20014;-75
2022/09/17 01:16:57;;;;;;;0.73;0.60;;;;;;;10.30;78.42;97954.22;7386803;19;20018;-75
2022/09/17 01:20:01;;;;;;;4.15;1.48;;;;;;;10.31;80.19;97959.34;7388025;19;20049;-74
2022/09/17 01:22:57;;;;;;;1.02;0.70;;;;;;;10.22;80.10;97962.13;7384819;19;20506;-74
2022/09/17 01:25:37;;;;;;;1.13;0.70;;;;;;;10.25;80.14;97956.50;7386080;19;20010;-74
2022/09/17 01:28:28;;;;;;;2.97;1.08;;;;;;;10.19;80.72;97955.34;7383898;19;20015;-74
2022/09/17 01:31:08;;;;;;;5.20;1.00;;;;;;;10.33;80.48;97960.00;7386409;19;20021;-74
2022/09/17 01:34:22;;;;;;;2.25;0.90;;;;;;;10.47;80.39;97963.00;7385974;19;20085;-75
2022/09/17 01:37:00;;;;;;;4.00;1.50;;;;;;;10.67;79.75;97956.38;7386358;19;20015;-74
2022/09/17 01:39:36;;;;;;;1.65;0.88;;;;;;;10.50;78.49;97955.53;7386169;19;20398;-75
2022/09/17 01:42:13;;;;;;;1.83;1.35;;;;;;;10.45;78.92;97957.88;7389313;19;20021;-75
2022/09/17 01:45:04;;;;;;;2.08;1.00;;;;;;;10.31;78.14;97977.84;7384586;19;20025;-75
2022/09/17 01:47:37;;;;;;;1.73;1.42;;;;;;;10.52;78.79;97973.91;7385179;19;20017;-75
2022/09/17 01:50:11;;;;;;;4.00;1.10;;;;;;;10.63;78.83;97967.44;7387426;19;20039;-75
2022/09/17 01:52:40;;;;;;;2.78;1.02;;;;;;;10.60;77.84;97968.59;7387420;19;20022;-74
2022/09/17 01:55:10;;;;;;;2.03;1.27;;;;;;;10.71;78.93;97970.09;7383002;19;20037;-77
2022/09/17 01:58:18;;;;;;;4.65;1.23;;;;;;;10.74;78.76;97975.91;7384071;19;20043;-75
2022/09/17 02:00:52;;;;;;;2.20;1.00;;;;;;;10.67;78.33;97971.44;7385092;19;20010;-75
2022/09/17 02:03:29;;;;;;;2.92;1.10;;;;;;;10.50;77.79;97970.59;7383271;19;20110;-75
2022/09/17 02:06:02;;;;;;;3.08;1.20;;;;;;;10.43;79.59;97970.44;7382619;19;20026;-74
2022/09/17 02:09:00;;;;;;;1.27;1.17;;;;;;;10.35;79.29;97973.09;7384799;19;20483;-75
2022/09/17 02:11:27;;;;;;;2.70;1.00;;;;;;;10.33;79.37;97970.59;7387184;19;20506;-74
2022/09/17 02:13:58;;;;;;;2.17;1.20;;;;;;;10.24;79.78;97970.69;7384221;19;20018;-74
2022/09/17 02:16:27;;;;;;;4.22;1.33;;;;;;;10.13;80.46;97971.84;7384423;19;20015;-75
2022/09/17 02:19:03;;;;;;;3.10;1.50;;;;;;;10.12;80.09;97978.13;7382662;19;20021;-75
2022/09/17 02:21:46;;;;;;;1.80;1.15;;;;;;;10.09;80.65;97976.63;7385345;19;20018;-75
2022/09/17 02:24:23;;;;;;;3.33;1.50;;;;;;;10.00;80.70;97969.66;7384115;19;20010;-76
2022/09/17 02:27:12;;;;;;;5.35;1.38;;;;;;;10.10;80.48;97964.25;7381852;19;20018;-75
2022/09/17 02:29:41;;;;;;;3.35;1.15;;;;;;;10.09;80.52;97968.72;7383228;19;20046;-74
2022/09/17 02:32:09;;;;;;;2.95;1.20;;;;;;;10.07;80.46;97970.69;7384051;19;20399;-74
2022/09/17 02:34:35;;;;;;;3.63;1.20;;;;;;;10.12;80.45;97972.84;7385449;19;20032;-76
2022/09/17 02:37:03;;;;;;;5.60;1.20;;;;;;;10.17;80.36;97980.28;7378860;19;20014;-75
2022/09/17 02:39:30;;;;;;;6.05;1.20;;;;;;;10.15;81.13;97977.81;7384393;19;20043;-75
2022/09/17 02:42:10;;;;;;;5.28;1.20;;;;;;;10.07;80.06;97967.22;7386147;19;20117;-75
2022/09/17 02:44:50;;;;;;;2.95;1.10;;;;;;;10.11;80.05;97974.66;7386215;19;20468;-75
2022/09/17 02:47:50;;;;;;;2.85;1.27;;;;;;;10.14;79.41;97968.22;7379683;19;20014;-75
2022/09/17 02:50:26;;;;;;;1.30;1.10;;;;;;;10.18;80.30;97966.06;7385388;19;20847;-74
2022/09/17 02:53:17;;;;;;;5.15;1.02;;;;;;;10.14;79.64;97964.72;7383530;19;20019;-75
2022/09/17 02:56:02;;;;;;;4.25;1.30;;;;;;;10.17;80.35;97953.88;7382170;19;20022;-76
2022/09/17 02:59:00;;;;;;;6.57;1.40;;;;;;;10.26;80.37;97955.50;7383183;19;20014;-75
2022/09/17 03:01:32;;;;;;;3.90;1.27;;;;;;;10.28;78.70;97959.69;7383936;19;20014;-75
2022/09/17 03:04:01;;;;;;;4.27;1.47;;;;;;;10.37;78.96;97954.38;7388904;19;20015;-75
2022/09/17 03:06:28;;;;;;;7.30;1.15;;;;;;;10.35;78.06;97951.06;7388691;19;20022;-74
2022/09/17 03:08:56;;;;;;;2.65;1.30;;;;;;;10.19;78.42;97955.34;7389748;19;20339;-76
2022/09/17 03:11:23;;;;;;;6.68;1.85;;;;;;;10.10;79.44;97949.22;7390921;19;20046;-76
2022/09/17 03:13:49;;;;;;;2.58;1.30;;;;;;;10.08;79.08;97958.28;7391595;19;20043;-75
2022/09/17 03:16:16;;;;;;;3.88;1.00;;;;;;;10.05;79.78;97961.25;7390299;19;20379;-74
2022/09/17 03:18:43;;;;;;;4.28;1.33;;;;;;;10.03;79.97;97958.81;7390439;19;20018;-74
2022/09/17 03:21:11;;;;;;;2.08;1.15;;;;;;;9.94;80.45;97957.13;7390985;19;20015;-74
2022/09/17 03:23:38;;;;;;;4.72;1.17;;;;;;;9.81;79.62;97959.38;7392084;19;20015;-76
2022/09/17 03:26:05;;;;;;;7.40;1.48;;;;;;;9.79;80.46;97956.06;7389949;19;20546;-74
2022/09/17 03:28:31;;;;;;;3.72;1.30;;;;;;;9.81;80.24;97956.75;7391223;19;20049;-75
2022/09/17 03:30:58;;;;;;;3.38;1.20;;;;;;;9.74;81.07;97955.72;7394602;19;20339;-74
2022/09/17 03:33:25;;;;;;;2.40;1.55;;;;;;;9.68;81.18;97971.22;7393012;19;20493;-74
2022/09/17 03:35:52;;;;;;;3.72;1.55;;;;;;;9.71;81.12;97970.09;7388463;19;20384;-74
2022/09/17 03:38:19;;;;;;;5.10;1.30;;;;;;;9.74;81.69;97964.50;7391454;19;20090;-74
2022/09/17 03:40:59;;;;;;;3.95;1.00;;;;;;;9.62;80.97;97969.25;7390786;19;20038;-75
2022/09/17 03:43:26;;;;;;;4.68;1.40;;;;;;;9.60;81.51;97979.13;7387248;19;20088;-76
2022/09/17 03:45:53;;;;;;;8.65;1.55;;;;;;;9.56;81.38;97975.16;7389350;19;20462;-75
2022/09/17 03:48:21;;;;;;;4.20;1.23;;;;;;;9.51;81.59;97988.03;7391862;19;20014;-75
2022/09/17 03:50:48;;;;;;;3.63;1.67;;;;;;;9.54;81.51;97985.06;7391325;19;20018;-75
2022/09/17 03:53:15;;;;;;;5.15;1.55;;;;;;;9.59;81.35;97985.41;7389594;19;20038;-75
2022/09/17 03:55:42;;;;;;;3.90;1.52;;;;;;;9.65;81.33;97986.59;7390521;19;20021;-76
2022/09/17 03:58:09;;;;;;;4.78;1.40;;;;;;;9.74;81.11;97990.91;7389544;19;20006;-74
2022/09/17 04:00:36;;;;;;;4.78;1.65;;;;;;;9.67;80.03;97996.00;7389362;19;20055;-75
2022/09/17 04:03:06;;;;;;;7.90;1.60;;;;;;;9.79;80.68;97993.06;7391536;19;20051;-75
2022/09/17 04:05:33;;;;;;;4.50;1.63;;;;;;;9.78;81.36;97996.69;7390598;19;20042;-75
2022/09/17 04:08:00;;;;;;;2.30;1.45;;;;;;;9.76;80.64;97993.38;7386641;19;20014;-75
2022/09/17 04:10:28;;;;;;;4.93;1.60;;;;;;;9.79;80.29;97988.59;7390567;19;20018;-74
2022/09/17 04:12:54;;;;;;;3.20;1.45;;;;;;;9.88;79.97;97990.28;7390335;19;20410;-75
2022/09/17 04:15:21;;;;;;;6.13;1.65;;;;;;;10.00;79.41;97980.25;7386055;19;20670;-75
2022/09/17 04:17:48;;;;;;;9.75;1.70;;;;;;;10.01;79.51;97989.84;7385995;19;20010;-74
2022/09/17 04:20:14;;;;;;;4.68;1.77;;;;;;;9.94;78.28;97983.53;7392451;19;20055;-74
2022/09/17 04:22:41;;;;;;;4.95;1.50;;;;;;;10.13;79.32;97987.72;7391269;19;20011;-75
2022/09/17 04:25:08;;;;;;;9.25;2.10;;;;;;;10.21;79.48;97992.19;7389263;19;20018;-74
2022/09/17 04:27:35;;;;;;;4.40;1.70;;;;;;;10.25;79.43;97983.78;7389638;19;20035;-75
2022/09/17 04:30:01;;;;;;;5.88;1.73;;;;;;;10.21;77.87;98000.94;7390712;19;20076;-75
2022/09/17 04:32:28;;;;;;;13.65;1.80;;;;;;;10.28;79.36;97998.50;7389529;19;20010;-75
2022/09/17 04:34:55;;;;;;;4.82;1.27;;;;;;;10.35;79.08;97994.22;7392120;19;20018;-75
2022/09/17 04:37:22;;;;;;;6.18;1.58;;;;;;;10.33;79.03;97998.84;7390292;19;20014;-75
2022/09/17 04:39:49;;;;;;;4.10;1.52;;;;;;;10.14;78.25;97999.94;7388266;19;20389;-74
2022/09/17 04:42:15;;;;;;;3.85;1.50;;;;;;;10.15;78.64;98000.78;7389061;19;20529;-74
2022/09/17 04:44:42;;;;;;;5.38;1.30;;;;;;;10.13;78.79;98010.69;7390995;19;20604;-75
2022/09/17 04:47:09;;;;;;;4.15;1.35;;;;;;;10.05;78.42;98009.66;7390199;19;20026;-75
2022/09/17 04:49:35;;;;;;;6.30;2.20;;;;;;;10.02;80.16;98009.16;7388962;19;20018;-74
2022/09/17 04:52:02;;;;;;;5.03;1.88;;;;;;;10.05;79.32;98014.94;7388688;19;20019;-74
2022/09/17 04:54:29;;;;;;;5.63;1.58;;;;;;;10.22;78.72;98020.28;7387788;19;20018;-74
2022/09/17 04:56:56;;;;;;;7.38;1.55;;;;;;;10.13;78.21;98015.97;7387925;19;20026;-75
2022/09/17 04:59:23;;;;;;;4.15;1.70;;;;;;;10.15;77.98;98008.69;7387703;19;20010;-75
2022/09/17 05:01:50;;;;;;;3.42;1.75;;;;;;;10.06;79.08;98015.78;7389479;19;20007;-74
2022/09/17 05:04:17;;;;;;;4.10;1.60;;;;;;;10.20;78.71;98016.97;7388205;19;20014;-75
2022/09/17 05:06:43;;;;;;;5.70;2.72;;;;;;;10.13;77.64;98018.59;7385345;19;20043;-74
2022/09/17 05:09:10;;;;;;;9.23;2.10;;;;;;;10.13;78.38;98014.13;7390277;19;20022;-75
2022/09/17 05:11:37;;;;;;;2.80;1.83;;;;;;;9.99;76.89;98026.16;7389366;19;20721;-75
2022/09/17 05:14:03;;;;;;;4.18;1.80;;;;;;;10.03;78.14;98026.66;7386553;19;20372;-75
2022/09/17 05:16:30;;;;;;;10.98;2.22;;;;;;;10.17;78.55;98027.88;7383255;19;20604;-74
2022/09/17 05:18:57;;;;;;;4.70;1.70;;;;;;;10.12;77.14;98025.72;7388815;19;20478;-74
2022/09/17 05:21:24;;;;;;;6.60;1.95;;;;;;;10.03;77.18;98027.50;7390031;19;20010;-75
2022/09/17 05:23:50;;;;;;;4.93;2.40;;;;;;;9.92;78.47;98029.59;7386724;19;20031;-75
2022/09/17 05:26:17;;;;;;;5.30;2.42;;;;;;;9.91;78.88;98031.44;7383077;19;20035;-75
2022/09/17 05:28:44;;;;;;;2.63;1.48;;;;;;;9.72;78.52;98031.69;7388055;19;20030;-74
2022/09/17 05:31:11;;;;;;;8.88;2.10;;;;;;;9.84;78.79;98035.69;7390046;19;20510;-74
2022/09/17 05:33:37;;;;;;;3.97;1.80;;;;;;;9.86;78.59;98044.28;7389161;19;20082;-75
2022/09/17 05:36:04;;;;;;;6.72;1.77;;;;;;;10.01;77.74;98041.88;7385127;19;20042;-74
2022/09/17 05:38:31;;;;;;;3.92;1.90;;;;;;;10.00;78.52;98038.38;7386835;19;20533;-75
2022/09/17 05:40:58;;;;;;;6.13;2.08;;;;;;;9.97;77.97;98044.00;7386084;19;20019;-75
2022/09/17 05:43:24;;;;;;;3.13;1.95;;;;;;;10.04;78.78;98046.84;7389589;19;20391;-74
2022/09/17 05:45:53;;;;;;;8.88;1.88;;;;;;;10.08;77.73;98045.50;7385614;19;20018;-74
2022/09/17 05:48:19;;;;;;;4.60;1.98;;;;;;;10.19;75.98;98041.75;7388416;19;20014;-74
2022/09/17 05:50:46;;;;;;;3.88;1.77;;;;;;;10.35;76.22;98044.47;7385566;19;20047;-75
2022/09/17 05:53:14;;;;;;;4.07;1.90;;;;;;;10.30;77.03;98039.66;7387993;19;20015;-75
2022/09/17 05:55:40;;;;;;;8.43;2.50;;;;;;;10.47;77.46;98050.25;7381397;19;20376;-74
2022/09/17 05:58:10;;;;;;;5.53;1.80;;;;;;;10.55;75.12;98053.75;7382698;19;20018;-74
2022/09/17 06:00:36;;;;;;;6.85;1.90;;;;;;;10.55;75.12;98056.38;7386511;19;20042;-75
2022/09/17 06:03:04;;;;;;;8.13;2.13;;;;;;;10.70;76.23;98055.75;7388050;19;20022;-74
2022/09/17 06:05:31;;;;;;;5.03;1.70;;;;;;;10.79;75.71;98064.53;7383860;19;20018;-74
2022/09/17 06:07:58;;;;;;;6.90;2.03;;;;;;;10.85;74.78;98064.69;7380948;19;20884;-74
2022/09/17 06:10:24;;;;;;;5.57;1.95;;;;;;;10.93;75.80;98062.06;7385802;19;20018;-74
2022/09/17 06:12:58;;;;;;;4.72;1.95;;;;;;;10.97;74.02;98070.47;7385038;19;20030;-75
2022/09/17 06:15:26;;;;;;;5.85;1.92;;;;;;;11.12;74.47;98068.81;7381614;19;20014;-76
2022/09/17 06:17:53;;;;;;;4.38;1.67;;;;;;;10.97;74.15;98070.47;7380076;19;20018;-74
2022/09/17 06:20:20;;;;;;;4.93;1.73;;;;;;;11.00;73.97;98078.09;7387516;19;20027;-75
2022/09/17 06:22:46;;;;;;;11.20;2.45;;;;;;;10.62;75.26;98071.63;7381427;19;20014;-74
2022/09/17 06:25:13;;;;;;;5.90;2.33;;;;;;;10.84;73.05;98078.09;7380838;19;20055;-75
2022/09/17 06:27:40;;;;;;;7.50;1.60;;;;;;;11.03;72.82;98076.94;7382108;19;20014;-75
2022/09/17 06:30:09;;;;;;;10.35;2.45;;;;;;;11.09;74.67;98082.41;7384460;19;20016;-75
2022/09/17 06:32:36;;;;;;;6.85;2.00;;;;;;;11.04;73.71;98081.25;7383281;19;20506;-75
2022/09/17 06:35:03;;;;;;;4.85;2.10;;;;;;;10.88;72.79;98074.13;7385324;19;20011;-74
2022/09/17 06:37:30;;;;;;;8.23;2.63;;;;;;;11.06;72.83;98077.44;7380990;19;20018;-75
2022/09/17 06:39:58;;;;;;;6.32;2.33;;;;;;;10.97;74.19;98076.59;7379485;19;20018;-74
2022/09/17 06:42:25;;;;;;;7.22;1.70;;;;;;;11.39;73.45;98080.03;7382993;19;20439;-75
2022/09/17 06:44:52;;;;;;;9.60;2.58;;;;;;;11.06;74.16;98079.22;7386055;19;20007;-74
2022/09/17 06:47:19;;;;;;;2.65;1.45;;;;;;;11.01;73.81;98073.66;7381233;19;20319;-75
2022/09/17 06:49:46;;;;;;;6.72;2.28;;;;;;;11.08;73.77;98083.38;7241156;19;2735954;-74
2022/09/17 06:52:12;;;;;;;6.68;1.85;;;;;;;11.15;74.24;98083.56;7387770;19;20018;-75
2022/09/17 06:54:39;;;;;;;9.45;2.10;;;;;;;11.32;71.73;98090.50;7385838;19;20015;-74
2022/09/17 06:57:06;;;;;;;5.60;1.75;;;;;;;11.04;72.43;98087.38;7379354;19;20347;-75
2022/09/17 06:59:32;;;;;;;7.55;2.17;;;;;;;11.08;72.81;98091.31;7382565;19;20022;-74
2022/09/17 07:01:59;;;;;;;4.53;1.80;;;;;;;11.07;73.36;98089.69;7385152;19;20022;-74
2022/09/17 07:04:26;;;;;;;4.82;1.58;;;;;;;10.84;74.09;98089.50;7384313;19;20018;-75
2022/09/17 07:06:53;;;;;;;5.13;2.05;;;;;;;11.02;74.04;98091.16;7382920;19;20015;-75
2022/09/17 07:09:20;;;;;;;6.88;1.63;;;;;;;10.95;73.91;98085.69;7385329;19;20025;-74
2022/09/17 07:11:47;;;;;;;4.07;1.90;;;;;;;11.06;73.84;98095.13;7381998;19;20073;-74
2022/09/17 07:14:14;;;;;;;6.22;1.45;;;;;;;10.82;74.51;98093.28;7371597;19;20057;-74
2022/09/17 07:16:40;;;;;;;5.50;1.88;;;;;;;10.84;73.77;98105.38;7380721;19;20026;-75
2022/09/17 07:19:10;;;;;;;7.07;2.13;;;;;;;10.85;74.79;98101.75;7382382;19;20010;-74
2022/09/17 07:21:40;;;;;;;4.68;1.77;;;;;;;10.75;75.19;98109.84;7382143;19;20014;-75
2022/09/17 07:24:07;;;;;;;4.88;1.85;;;;;;;10.88;74.70;98108.53;7382320;19;20022;-75
2022/09/17 07:26:34;;;;;;;6.38;2.08;;;;;;;10.64;76.51;98118.09;7379816;19;20466;-74
2022/09/17 07:29:00;;;;;;;7.65;1.80;;;;;;;10.52;75.54;98125.50;7383978;19;20014;-74
2022/09/17 07:31:27;;;;;;;7.47;2.60;;;;;;;10.35;77.94;98122.94;7383932;19;20018;-74
2022/09/17 07:33:54;;;;;;;8.70;1.90;;;;;;;10.45;78.35;98132.44;7386865;19;20035;-75
2022/09/17 07:36:21;;;;;;;5.05;2.78;;;;;;;10.41;79.88;98131.09;7380729;19;20018;-74
2022/09/17 07:38:48;;;;;;;7.38;2.40;;;;;;;10.30;80.83;98134.84;7382174;19;20018;-74
2022/09/17 07:41:16;;;;;;;6.97;2.70;;;;;;;10.22;81.12;98126.88;7387236;19;20090;-74
2022/09/17 07:43:44;;;;;;;5.57;2.45;;;;;;;10.33;81.99;98128.41;7385770;19;20018;-75
2022/09/17 07:46:16;;;;;;;4.03;2.80;;;;;;;10.29;81.85;98137.63;7378605;19;20034;-74
2022/09/17 07:48:42;;;;;;;5.90;2.53;;;;;;;10.15;81.49;98140.88;7387456;19;20015;-75
2022/09/17 07:51:17;;;;;;;4.78;2.60;;;;;;;10.20;81.56;98138.59;7393542;19;20014;-74
2022/09/17 07:53:44;;;;;;;6.05;2.63;;;;;;;9.96;80.78;98144.59;7389889;19;20035;-74
2022/09/17 07:56:11;;;;;;;9.52;2.63;;;;;;;10.22;82.79;98152.47;7388757;19;20015;-74
2022/09/17 07:58:38;;;;;;;10.00;2.70;;;;;;;10.24;82.63;98151.34;7391324;19;20466;-74
2022/09/17 08:01:12;;;;;;;3.67;2.78;;;;;;;10.09;81.86;98153.72;7391759;19;20035;-74
2022/09/17 08:03:38;;;;;;;5.50;2.63;;;;;;;10.51;81.90;98145.00;7388072;19;20467;-74
2022/09/17 08:06:14;;;;;;;3.03;2.35;;;;;;;10.51;80.11;98147.66;7389261;19;20039;-74
2022/09/17 08:08:41;;;;;;;8.10;3.20;;;;;;;10.79;81.63;98142.06;7386130;19;20015;-74
2022/09/17 08:11:12;;;;;;;6.53;2.60;;;;;;;10.86;81.37;98147.56;7389464;19;20014;-74
2022/09/17 08:13:39;;;;;;;7.68;3.00;;;;;;;10.87;80.91;98155.31;7391843;19;20017;-74
2022/09/17 08:16:08;;;;;;;7.65;3.47;;;;;;;10.77;81.33;98157.31;7389498;19;20408;-74
2022/09/17 08:18:36;;;;;;;6.20;2.90;;;;;;;10.80;80.64;98158.81;7386103;19;20015;-74
2022/09/17 08:21:04;;;;;;;5.65;3.03;;;;;;;10.65;80.43;98161.25;7388275;19;20021;-74
2022/09/17 08:23:34;;;;;;;4.47;2.72;;;;;;;10.66;80.14;98161.06;7391773;19;20679;-74
2022/09/17 08:26:01;;;;;;;5.18;2.97;;;;;;;10.89;80.58;98161.28;7383806;19;20018;-75
2022/09/17 08:28:30;;;;;;;4.63;3.10;;;;;;;10.69;79.40;98167.84;7386787;19;20019;-75
2022/09/17 08:31:01;;;;;;;10.73;2.90;;;;;;;10.64;78.80;98163.06;7391922;19;20010;-74
2022/09/17 08:33:33;;;;;;;6.47;3.20;;;;;;;10.92;78.83;98166.25;7391225;19;20018;-74
2022/09/17 08:36:00;;;;;;;7.90;3.35;;;;;;;10.99;79.26;98156.66;7387750;19;20014;-75
2022/09/17 08:38:28;;;;;;;8.50;3.45;;;;;;;10.91;79.23;98161.13;7388066;19;20046;-74
2022/09/17 08:41:09;;;;;;;12.88;2.92;;;;;;;11.06;77.03;98159.50;7389273;19;20620;-75
2022/09/17 08:44:00;;;;;;;8.65;3.00;;;;;;;11.51;77.33;98160.84;7390784;19;20022;-74
2022/09/17 08:46:31;;;;;;;10.57;4.15;;;;;;;11.31;77.66;98148.91;7385726;19;20508;-75
2022/09/17 08:49:07;;;;;;;9.95;2.50;;;;;;;11.71;76.29;98150.69;7384011;19;20074;-75
2022/09/17 08:51:33;;;;;;;7.35;2.63;;;;;;;11.65;74.98;98143.41;7391055;19;20039;-74
2022/09/17 08:54:08;;;;;;;9.18;2.88;;;;;;;11.83;75.27;98151.19;7388061;19;20039;-75
2022/09/17 08:56:36;;;;;;;5.97;3.03;;;;;;;12.44;73.51;98160.28;7385427;19;21473;-73
2022/09/17 08:59:16;;;;;;;11.02;2.50;;;;;;;12.59;73.45;98170.19;7381742;19;20343;-75
2022/09/17 09:01:58;;;;;;;5.95;2.20;;;;;;;12.68;71.00;98166.47;7385568;19;20022;-74
2022/09/17 09:04:46;;;;;;;9.23;2.70;;;;;;;12.83;71.94;98159.41;7387297;19;20011;-74
2022/09/17 09:07:24;;;;;;;11.88;3.10;;;;;;;12.21;72.75;98170.00;7386918;19;20026;-75
2022/09/17 09:10:17;;;;;;;7.40;3.28;;;;;;;11.96;74.56;98166.59;7384330;19;20038;-75
2022/09/17 09:12:44;;;;;;;8.75;2.42;;;;;;;11.65;74.63;98175.22;7387226;19;20019;-76
2022/09/17 09:15:17;;;;;;;5.53;2.47;;;;;;;11.78;74.44;98177.38;7384672;19;20014;-74
2022/09/17 09:17:45;;;;;;;;;;;;;;;11.64;73.85;98160.31;7387591;19;20011;-74
2022/09/17 09:20:17;;;;;;;6.30;2.17;;;;;;;11.83;74.38;98161.78;7384703;19;19919;-74
2022/09/17 09:22:48;;;;;;;12.97;3.20;;;;;;;11.93;74.18;98159.81;7385326;19;20384;-74
2022/09/17 09:25:19;;;;;;;7.55;3.03;;;;;;;12.11;73.35;98159.56;7380400;19;20022;-74
2022/09/17 09:27:56;;;;;;;9.50;2.88;;;;;;;12.05;74.28;98161.06;7383727;19;20484;-74
2022/09/17 09:30:23;;;;;;;11.07;2.20;;;;;;;12.09;72.42;98158.94;7386369;19;20043;-75
2022/09/17 09:32:56;;;;;;;9.57;3.22;;;;;;;12.44;71.53;98154.16;7384892;19;20014;-74
2022/09/17 09:35:23;;;;;;;8.82;2.22;;;;;;;12.59;71.44;98162.22;7386528;19;20022;-74
2022/09/17 09:38:32;;;;;;;8.63;2.28;;;;;;;12.30;72.62;98156.53;7385263;19;20396;-74
2022/09/17 09:41:09;;;;;;;9.80;2.00;;;;;;;12.24;73.28;98154.56;7386491;19;20011;-74
2022/09/17 09:43:57;;;;;;;8.15;2.33;;;;;;;12.53;71.52;98161.06;7384848;19;20006;-74
2022/09/17 09:46:39;;;;;;;5.53;2.13;;;;;;;12.89;70.48;98164.00;7383414;19;20060;-74
2022/09/17 09:49:24;;;;;;;8.85;2.03;;;;;;;12.74;69.16;98158.66;7384058;19;20035;-75
2022/09/17 09:52:12;;;;;;;8.98;2.65;;;;;;;12.48;70.06;98160.75;7386226;19;20545;-74
2022/09/17 09:55:14;;;;;;;7.78;2.13;;;;;;;13.08;68.28;98152.09;7386705;19;20014;-74
2022/09/17 09:57:48;;;;;;;11.05;2.10;;;;;;;13.52;67.88;98164.75;7385472;19;21030;-74
2022/09/17 10:00:37;;;;;;;7.75;2.25;;;;;;;13.76;67.35;98163.69;7382674;19;20026;-74
2022/09/17 10:03:19;;;;;;;7.03;2.00;;;;;;;14.03;66.77;98156.09;7384696;19;20010;-74
2022/09/17 10:06:04;;;;;;;8.82;2.58;;;;;;;13.86;66.34;98162.63;7383170;19;20486;-75
2022/09/17 10:08:33;;;;;;;11.10;1.92;;;;;;;14.10;66.07;98166.84;7381721;19;20043;-74
2022/09/17 10:11:01;;;;;;;9.05;2.28;;;;;;;13.70;65.75;98152.97;7384752;19;20022;-74
2022/09/17 10:13:37;;;;;;;6.78;1.73;;;;;;;13.94;64.38;98158.03;7385078;19;20485;-73
2022/09/17 10:16:15;;;;;;;7.80;2.47;;;;;;;14.10;64.58;98156.22;7385819;19;20792;-74
2022/09/17 10:18:43;;;;;;;7.40;2.00;;;;;;;14.13;64.48;98163.81;7384651;19;20399;-76
2022/09/17 10:21:30;;;;;;;7.25;2.35;;;;;;;13.90;63.96;98156.75;7380370;19;20006;-75
2022/09/17 10:23:57;;;;;;;5.75;2.00;;;;;;;13.96;65.83;98153.38;7385801;19;20658;-73
2022/09/17 10:26:35;;;;;;;10.35;2.42;;;;;;;14.44;64.20;98148.47;7382863;19;20042;-73
2022/09/17 10:29:04;;;;;;;9.80;1.92;;;;;;;14.69;64.19;98151.69;7381490;19;20030;-74
2022/09/17 10:31:50;;;;;;;5.88;1.70;;;;;;;14.31;63.99;98150.97;7381925;19;20014;-74
2022/09/17 10:34:25;;;;;;;9.60;2.35;;;;;;;14.23;66.43;98153.72;7382779;19;20525;-75
2022/09/17 10:36:54;;;;;;;6.80;2.00;;;;;;;13.87;63.49;98150.97;7382768;19;20817;-76
2022/09/17 10:39:33;;;;;;;6.82;1.80;;;;;;;13.69;65.90;98140.66;7384941;19;20033;-74
2022/09/17 10:42:05;;;;;;;5.75;1.40;;;;;;;14.01;65.57;98139.53;7382458;19;20015;-75
2022/09/17 10:44:34;;;;;;;6.40;1.85;;;;;;;13.76;62.75;98141.59;7385831;19;20031;-74
2022/09/17 10:47:04;;;;;;;5.72;1.73;;;;;;;13.56;65.37;98136.81;7383669;19;20026;-74
2022/09/17 10:49:38;;;;;;;4.60;1.95;;;;;;;13.56;65.85;98122.69;7383170;19;20018;-74
2022/09/17 10:52:07;;;;;;;6.43;1.75;;;;;;;14.01;62.51;98127.03;7381422;19;20014;-74
2022/09/17 10:54:48;;;;;;;9.30;1.75;;;;;;;14.57;64.83;98128.38;7383475;19;20019;-74
2022/09/17 10:57:24;;;;;;;6.68;1.63;;;;;;;14.39;62.44;98124.25;7380847;19;20377;-73
2022/09/17 10:59:57;;;;;;;7.00;1.77;;;;;;;14.33;63.01;98122.34;7384037;19;20042;-74
2022/09/17 11:02:39;;;;;;;2.97;1.35;;;;;;;14.75;64.98;98126.13;7381394;19;20014;-74
2022/09/17 11:05:31;;;;;;;7.07;1.80;;;;;;;14.77;59.25;98125.94;7380488;19;20014;-75
2022/09/17 11:08:16;;;;;;;4.38;1.30;;;;;;;14.95;58.91;98109.53;7380026;19;20478;-76
2022/09/17 11:11:10;;;;;;;3.38;1.05;;;;;;;14.92;56.18;98108.88;7380066;19;20351;-74
2022/09/17 11:14:03;;;;;;;3.63;1.52;;;;;;;14.77;61.83;98113.47;7383071;19;20026;-74
2022/09/17 11:16:33;;;;;;;4.85;1.38;;;;;;;14.91;60.75;98109.91;7380886;19;20049;-73
2022/09/17 11:19:08;;;;;;;3.58;1.05;;;;;;;15.49;61.00;98120.47;7386470;19;20039;-74
2022/09/17 11:21:41;;;;;;;4.07;1.20;;;;;;;15.95;57.02;98105.81;7382718;19;20022;-75
2022/09/17 11:24:25;;;;;;;5.30;1.17;;;;;;;15.91;58.77;98105.41;7387133;19;20026;-73
2022/09/17 11:27:22;;;;;;;4.00;1.40;;;;;;;15.49;57.65;98101.81;7383387;19;20018;-74
2022/09/17 11:30:03;;;;;;;3.55;1.15;;;;;;;16.07;54.19;98104.25;7389462;19;20019;-74
2022/09/17 11:32:49;;;;;;;6.50;1.25;;;;;;;15.41;56.14;98101.13;7385032;19;20014;-74
2022/09/17 11:35:20;;;;;;;4.38;1.08;;;;;;;15.90;55.60;98101.06;7391312;19;20106;-74
2022/09/17 11:37:55;;;;;;;6.25;1.33;;;;;;;15.70;58.08;98100.97;7394180;19;20029;-75
2022/09/17 11:40:44;;;;;;;5.63;1.58;;;;;;;15.89;55.80;98101.28;7387902;19;20090;-74
2022/09/17 11:43:18;;;;;;;3.67;1.20;;;;;;;15.52;56.71;98101.41;7385467;19;20082;-72
2022/09/17 11:46:02;;;;;;;5.05;1.45;;;;;;;14.60;60.94;98102.19;7391919;19;20018;-75
2022/09/17 11:48:35;;;;;;;4.38;1.55;;;;;;;13.95;64.16;98114.47;7383001;19;20018;-73
2022/09/17 11:51:18;;;;;;;7.90;2.00;;;;;;;13.59;64.64;98109.06;7389142;19;20060;-73
2022/09/17 11:54:20;;;;;;;5.43;1.45;;;;;;;13.55;66.83;98102.44;7388965;19;20014;-73
2022/09/17 11:56:49;;;;;;;5.55;1.45;;;;;;;13.55;66.75;98103.25;7386164;19;20797;-72
2022/09/17 11:59:29;;;;;;;3.58;1.25;;;;;;;13.80;64.32;98095.03;7386630;19;20022;-73